Time;durP1;ratioP1;P1;durP2;ratioP2;P2;SDS_P1;SDS_P2;PMS_P1;PMS_P2;Temp;Humidity;BMP_temperature;BMP_pressure;BME280_temperature;BME280_humidity;BME280_pressure;Samples;Min_cycle;Max_cycle;Signal;HPM_P1;HPM_P2
2022/01/19 00:00:59;;;;;;;11.43;4.40;;;;;;;2.15;83.52;102285.98;1664495;86;21021;-75
2022/01/19 00:03:26;;;;;;;10.73;4.50;;;;;;;2.14;83.51;102281.66;1664408;86;21052;-74
2022/01/19 00:05:54;;;;;;;12.87;3.77;;;;;;;2.14;83.55;102282.95;1664547;86;21115;-74
2022/01/19 00:08:21;;;;;;;13.77;5.17;;;;;;;2.15;83.58;102285.98;1664396;86;21164;-74
2022/01/19 00:10:51;;;;;;;11.77;3.80;;;;;;;2.15;83.62;102274.77;1664380;86;21105;-78
2022/01/19 00:13:18;;;;;;;13.33;4.10;;;;;;;2.17;83.70;102271.39;1664368;86;21494;-75
2022/01/19 00:15:46;;;;;;;14.83;4.90;;;;;;;2.17;83.70;102266.64;1664497;86;21013;-74
2022/01/19 00:18:18;;;;;;;10.27;3.87;;;;;;;2.15;83.70;102263.13;1664426;86;21071;-75
2022/01/19 00:20:46;;;;;;;10.33;4.37;;;;;;;2.14;83.81;102264.84;1664481;86;21127;-74
2022/01/19 00:23:16;;;;;;;8.63;3.70;;;;;;;2.14;83.91;102257.51;1664169;86;20956;-74
2022/01/19 00:25:43;;;;;;;9.67;4.23;;;;;;;2.14;83.94;102249.75;1664610;86;21044;-76
2022/01/19 00:28:10;;;;;;;8.27;3.47;;;;;;;2.13;83.87;102247.97;1664486;86;21044;-76
2022/01/19 00:30:38;;;;;;;11.53;3.70;;;;;;;2.12;83.92;102244.94;1664371;86;21073;-74
2022/01/19 00:33:05;;;;;;;10.07;3.80;;;;;;;2.12;83.94;102243.65;1664275;86;22036;-75
2022/01/19 00:35:37;;;;;;;9.67;3.73;;;;;;;2.10;83.93;102241.00;1664229;86;21386;-75
2022/01/19 00:38:07;;;;;;;12.80;3.90;;;;;;;2.11;83.94;102238.03;1664200;86;21029;-75
2022/01/19 00:40:36;;;;;;;8.40;3.65;;;;;;;2.11;84.00;102228.97;1664531;86;21121;-75
2022/01/19 00:43:03;;;;;;;10.43;3.67;;;;;;;2.13;84.09;102233.75;1664297;86;21314;-75
2022/01/19 00:45:30;;;;;;;12.57;4.40;;;;;;;2.14;84.17;102216.12;1664288;86;22084;-75
2022/01/19 00:47:58;;;;;;;10.03;3.77;;;;;;;2.16;84.23;102225.67;1664217;86;21059;-75
2022/01/19 00:50:28;;;;;;;8.53;3.80;;;;;;;2.17;84.24;102228.70;1664195;86;21067;-75
2022/01/19 00:52:55;;;;;;;12.50;4.23;;;;;;;2.17;84.22;102227.84;1664479;86;21088;-74
2022/01/19 00:55:26;;;;;;;10.87;3.73;;;;;;;2.17;84.23;102227.41;1664380;86;21616;-75
2022/01/19 00:57:55;;;;;;;10.73;4.10;;;;;;;2.15;84.24;102231.66;1664422;86;22048;-74
2022/01/19 01:00:26;;;;;;;17.50;5.30;;;;;;;2.14;84.44;102236.39;1664308;86;21012;-79
2022/01/19 01:02:54;;;;;;;12.17;4.63;;;;;;;2.12;84.47;102228.12;1664694;86;21531;-74
2022/01/19 01:05:22;;;;;;;12.10;4.73;;;;;;;2.10;84.48;102228.07;1664516;86;21040;-79
2022/01/19 01:07:49;;;;;;;13.27;4.57;;;;;;;2.10;84.54;102231.95;1664757;86;21280;-75
2022/01/19 01:10:20;;;;;;;13.70;5.13;;;;;;;2.10;84.58;102222.03;1664413;86;21161;-75
2022/01/19 01:12:53;;;;;;;10.45;4.62;;;;;;;2.11;84.57;102228.97;1664677;85;21047;-74
2022/01/19 01:15:28;;;;;;;10.50;4.53;;;;;;;2.10;84.58;102222.90;1664416;86;21056;-78
2022/01/19 01:20:38;;;;;;;12.53;4.23;;;;;;;2.08;84.75;102219.42;1664512;86;21059;-74
2022/01/19 01:23:07;;;;;;;17.10;5.53;;;;;;;2.08;84.83;102205.19;1664661;86;21053;-74
2022/01/19 01:25:35;;;;;;;9.30;4.57;;;;;;;2.11;84.85;102204.41;1657988;85;21024;-74
2022/01/19 01:28:03;;;;;;;11.77;4.70;;;;;;;2.11;84.91;102196.64;1664368;86;21052;-75
2022/01/19 01:30:30;;;;;;;11.50;4.87;;;;;;;2.11;84.90;102197.94;1664399;86;21291;-79
2022/01/19 01:32:58;;;;;;;13.57;5.20;;;;;;;2.11;85.03;102198.80;1664557;86;21068;-74
2022/01/19 01:35:25;;;;;;;11.53;4.97;;;;;;;2.10;84.97;102186.69;1664386;86;22038;-74
2022/01/19 01:37:53;;;;;;;13.63;5.27;;;;;;;2.09;85.05;102188.83;1664355;85;21032;-80
2022/01/19 01:40:22;;;;;;;12.00;4.73;;;;;;;2.11;85.15;102181.12;1664400;86;21029;-73
2022/01/19 01:42:49;;;;;;;10.43;4.33;;;;;;;2.11;85.15;102178.53;1664519;86;21029;-74
2022/01/19 01:45:23;;;;;;;12.50;5.63;;;;;;;2.11;85.22;102176.81;1664396;86;21013;-74
2022/01/19 01:47:52;;;;;;;12.73;5.37;;;;;;;2.12;85.18;102164.75;1664491;85;21152;-74
2022/01/19 01:55:30;;;;;;;8.97;4.83;;;;;;;2.11;85.46;102122.92;1664482;86;21052;-74
2022/01/19 01:57:57;;;;;;;12.23;5.17;;;;;;;2.14;85.55;102109.63;1664725;86;21044;-76
2022/01/19 02:00:26;;;;;;;11.60;5.10;;;;;;;2.16;85.62;102105.38;1664465;85;21137;-74
2022/01/19 02:02:55;;;;;;;12.40;5.20;;;;;;;2.18;85.70;102106.27;1664576;86;21024;-74
2022/01/19 02:05:23;;;;;;;8.20;4.70;;;;;;;2.21;85.76;102106.34;1664344;86;21056;-74
2022/01/19 02:08:07;;;;;;;11.93;5.17;;;;;;;2.26;85.86;102111.64;1664628;86;21447;-74
2022/01/19 02:10:53;;;;;;;12.47;5.17;;;;;;;2.28;85.80;102119.03;1664563;85;21077;-74
2022/01/19 02:22:04;;;;;;;13.27;5.73;;;;;;;2.32;85.91;102113.08;1589011;90;21037;-79
2022/01/19 02:24:06;;;;;;;11.30;5.27;;;;;;;2.31;85.87;102093.23;1620268;86;21048;-79
2022/01/19 02:26:50;;;;;;;15.27;5.43;;;;;;;2.31;85.89;102083.30;1664336;86;21153;-74
2022/01/19 02:29:20;;;;;;;10.73;4.70;;;;;;;2.32;85.98;102065.20;1663687;85;21053;-79
2022/01/19 02:42:41;;;;;;;13.22;5.78;;;;;;;2.39;86.10;102058.05;1664751;86;21517;-78
2022/01/19 02:50:29;;;;;;;10.87;5.90;;;;;;;2.43;86.13;102048.64;1664420;86;21112;-75
2022/01/19 02:52:56;;;;;;;10.90;5.90;;;;;;;2.42;86.05;102048.20;1664622;86;21179;-74
2022/01/19 02:55:24;;;;;;;11.30;5.10;;;;;;;2.40;85.98;102042.97;1664275;86;21561;-75
2022/01/19 02:57:52;;;;;;;13.67;6.13;;;;;;;2.38;86.04;102033.42;1664656;86;21079;-77
2022/01/19 03:08:44;;;;;;;11.53;5.47;;;;;;;2.34;86.13;102018.69;1664595;86;21048;-75
2022/01/19 03:11:18;;;;;;;12.10;5.33;;;;;;;2.34;86.18;102016.96;1664461;86;21052;-75
2022/01/19 03:13:48;;;;;;;11.77;5.00;;;;;;;2.33;86.20;102008.76;1664676;86;21040;-79
2022/01/19 03:16:19;;;;;;;12.33;4.80;;;;;;;2.32;86.20;102002.23;1664945;86;21535;-75
2022/01/19 03:18:48;;;;;;;14.53;6.37;;;;;;;2.30;86.19;101997.05;1664586;86;21189;-74
2022/01/19 03:21:17;;;;;;;13.50;6.17;;;;;;;2.31;86.29;101997.92;1664126;86;21048;-73
2022/01/19 03:23:45;;;;;;;12.20;5.97;;;;;;;2.31;86.36;101996.63;1658195;85;21119;-73
2022/01/19 03:26:12;;;;;;;11.57;5.83;;;;;;;2.32;86.33;101990.17;1664287;86;21017;-73
2022/01/19 03:28:50;;;;;;;11.20;5.97;;;;;;;2.33;86.35;101980.30;1663880;85;21048;-73
2022/01/19 03:31:18;;;;;;;14.73;6.53;;;;;;;2.33;86.34;101975.52;1664330;86;21139;-73
2022/01/19 03:33:45;;;;;;;14.17;6.43;;;;;;;2.31;86.35;101978.51;1664508;86;20968;-74
2022/01/19 03:36:12;;;;;;;13.30;5.97;;;;;;;2.31;86.37;101974.62;1664299;86;20945;-73
2022/01/19 03:38:40;;;;;;;14.50;6.17;;;;;;;2.31;86.41;101966.87;1664665;86;21033;-73
2022/01/19 03:41:07;;;;;;;11.70;6.67;;;;;;;2.30;86.41;101962.52;1664494;86;21473;-73
2022/01/19 03:43:34;;;;;;;13.67;6.63;;;;;;;2.30;86.38;101963.80;1664530;86;21122;-78
2022/01/19 03:46:12;;;;;;;13.00;5.57;;;;;;;2.29;86.38;101960.35;1664061;86;21032;-74
2022/01/19 03:48:51;;;;;;;11.37;6.20;;;;;;;2.28;86.34;101953.87;1664505;85;21016;-73
2022/01/19 03:51:13;;;;;;;13.60;6.27;;;;;;;2.28;86.43;101961.63;1664306;85;21040;-74
2022/01/19 03:53:40;;;;;;;10.43;5.17;;;;;;;2.27;86.47;101953.39;1664605;86;21180;-78
2022/01/19 03:56:07;;;;;;;15.00;5.63;;;;;;;2.27;86.50;101959.44;1664306;86;21254;-73
2022/01/19 03:58:36;;;;;;;11.50;4.87;;;;;;;2.28;86.59;101959.91;1664540;86;21049;-73
2022/01/19 04:01:06;;;;;;;8.87;4.70;;;;;;;2.30;86.61;101954.75;1664293;86;21041;-74
2022/01/19 04:08:46;;;;;;;9.20;4.97;;;;;;;2.32;86.68;101964.30;1664262;86;21152;-74
2022/01/19 04:11:16;;;;;;;10.00;5.17;;;;;;;2.32;86.65;101952.66;1664411;86;21029;-74
2022/01/19 04:16:29;;;;;;;13.47;6.10;;;;;;;2.34;86.72;101945.80;1664658;86;21103;-74
2022/01/19 04:19:17;;;;;;;10.37;5.07;;;;;;;2.38;86.85;101934.70;1664388;86;21002;-73
2022/01/19 04:21:31;;;;;;;13.23;5.53;;;;;;;2.39;86.80;101934.27;1663786;85;21763;-75
2022/01/19 04:23:58;;;;;;;10.37;5.37;;;;;;;2.41;86.80;101933.46;1664449;86;21017;-74
2022/01/19 04:26:25;;;;;;;10.60;5.50;;;;;;;2.42;86.80;101923.55;1664461;86;21049;-74
2022/01/19 04:28:54;;;;;;;12.43;5.47;;;;;;;2.47;86.86;101922.36;1664383;86;21073;-80
2022/01/19 04:31:21;;;;;;;13.80;5.33;;;;;;;2.48;86.91;101916.34;1664351;86;21060;-74
2022/01/19 04:33:48;;;;;;;9.80;4.97;;;;;;;2.49;86.89;101917.20;1664331;86;21107;-74
2022/01/19 04:36:33;;;;;;;10.47;5.80;;;;;;;2.49;86.96;101916.77;1664310;86;21052;-74
2022/01/19 04:47:48;;;;;;;11.63;5.37;;;;;;;2.54;86.76;101891.86;1664550;86;21100;-74
2022/01/19 05:03:48;;;;;;;10.60;5.10;;;;;;;2.56;86.53;101881.13;1663851;85;21088;-74
2022/01/19 05:06:17;;;;;;;10.33;5.77;;;;;;;2.54;86.56;101875.03;1663851;86;21037;-75
2022/01/19 05:08:53;;;;;;;13.63;6.10;;;;;;;2.50;86.56;101874.54;1663556;86;21013;-80
2022/01/19 05:13:56;;;;;;;12.57;6.43;;;;;;;2.47;86.67;101874.48;1664507;86;21225;-74
2022/01/19 05:16:25;;;;;;;11.43;6.07;;;;;;;2.43;86.59;101864.47;1664605;86;21049;-74
2022/01/19 05:18:52;;;;;;;11.10;5.93;;;;;;;2.41;86.63;101859.70;1664553;86;21005;-75
2022/01/19 05:21:20;;;;;;;14.50;6.33;;;;;;;2.37;86.46;101864.36;1664282;86;21044;-74
2022/01/19 05:24:04;;;;;;;11.50;6.07;;;;;;;2.34;86.36;101860.84;1623873;86;21044;-74
2022/01/19 05:26:34;;;;;;;12.07;5.87;;;;;;;2.26;86.30;101854.64;1664752;86;21120;-74
2022/01/19 05:29:03;;;;;;;11.70;6.03;;;;;;;2.26;86.30;101854.64;1664345;86;21611;-75
2022/01/19 05:31:31;;;;;;;14.63;6.10;;;;;;;2.24;86.29;101849.42;1664484;86;21084;-75
2022/01/19 05:33:58;;;;;;;12.90;5.83;;;;;;;2.19;86.29;101853.23;1664497;86;21052;-75
2022/01/19 05:36:26;;;;;;;12.13;5.17;;;;;;;2.19;86.36;101857.50;1664543;85;21048;-74
2022/01/19 05:39:12;;;;;;;13.37;5.90;;;;;;;2.16;86.35;101852.27;1664479;86;21229;-74
2022/01/19 05:41:47;;;;;;;10.70;5.80;;;;;;;2.10;86.02;101836.20;1662812;86;21088;-77
2022/01/19 05:44:15;;;;;;;11.10;5.47;;;;;;;2.01;86.05;101830.84;1664384;86;21017;-74
2022/01/19 05:46:42;;;;;;;14.00;5.53;;;;;;;1.90;85.75;101825.88;1664709;86;21582;-74
2022/01/19 05:49:10;;;;;;;8.60;4.90;;;;;;;1.83;85.86;101825.27;1664405;86;21017;-74
2022/01/19 05:51:37;;;;;;;9.70;5.50;;;;;;;1.76;85.73;101829.45;1664604;86;21295;-74
2022/01/19 05:54:04;;;;;;;11.13;5.27;;;;;;;1.64;85.54;101821.02;1664300;86;21478;-75
2022/01/19 05:56:32;;;;;;;8.63;5.10;;;;;;;1.57;85.83;101815.24;1664682;86;21127;-74
2022/01/19 05:59:01;;;;;;;9.13;5.00;;;;;;;1.46;85.19;101812.41;1664220;85;21076;-74
2022/01/19 06:01:31;;;;;;;7.67;4.53;;;;;;;1.38;85.45;101810.49;1664665;86;21021;-75
2022/01/19 06:04:00;;;;;;;9.10;4.77;;;;;;;1.30;85.04;101802.55;1664428;86;21310;-75
2022/01/19 06:06:45;;;;;;;9.73;4.17;;;;;;;1.22;85.33;101804.98;1664447;86;21519;-75
2022/01/19 06:09:47;;;;;;;9.13;5.17;;;;;;;1.22;85.54;101801.50;1658654;86;21040;-76
2022/01/19 06:12:09;;;;;;;10.23;5.27;;;;;;;1.13;85.36;101796.99;1664241;85;21056;-75
2022/01/19 06:14:39;;;;;;;13.17;8.10;;;;;;;1.08;85.52;101795.61;1664366;86;21564;-74
2022/01/19 06:17:10;;;;;;;25.68;15.45;;;;;;;0.99;85.54;101795.79;1664800;86;22027;-74
2022/01/19 06:19:38;;;;;;;24.40;15.73;;;;;;;1.00;86.17;101794.94;1664243;86;21013;-74
2022/01/19 06:22:07;;;;;;;18.57;10.50;;;;;;;0.98;86.49;101791.05;1665016;86;21037;-75
2022/01/19 06:24:35;;;;;;;19.50;8.87;;;;;;;0.98;86.62;101792.77;1664336;86;21056;-75
2022/01/19 06:27:02;;;;;;;13.43;7.77;;;;;;;0.96;86.65;101791.42;1664702;86;21021;-79
2022/01/19 06:29:30;;;;;;;13.67;7.17;;;;;;;0.93;86.30;101782.31;1664310;86;21778;-77
2022/01/19 06:32:00;;;;;;;16.17;8.70;;;;;;;0.93;86.48;101778.87;1664515;86;21033;-74
2022/01/19 06:34:28;;;;;;;;;;;;;;;0.93;86.49;101778.87;1666895;86;21525;-75
2022/01/19 06:37:11;;;;;;;14.47;8.20;;;;;;;0.88;86.62;101777.45;1624667;86;20176;-75
2022/01/19 06:39:49;;;;;;;12.68;8.80;;;;;;;0.89;86.53;101774.92;1663760;86;21036;-74
2022/01/19 06:42:16;;;;;;;25.63;10.50;;;;;;;0.85;86.18;101769.64;1664689;86;21032;-75
2022/01/19 06:44:44;;;;;;;23.63;11.70;;;;;;;0.78;86.40;101762.17;1664346;86;21061;-74
2022/01/19 06:47:10;;;;;;;27.83;13.00;;;;;;;;;;1635884;86;21514;-75
2022/01/19 06:49:38;;;;;;;29.00;13.60;;;;;;;0.92;87.26;101750.89;1664283;86;21056;-74
2022/01/19 06:52:07;;;;;;;28.50;13.13;;;;;;;0.95;87.29;101739.77;1664542;86;21097;-75
2022/01/19 06:54:35;;;;;;;21.73;10.70;;;;;;;0.94;87.35;101733.70;1664293;86;21956;-75
2022/01/19 06:57:03;;;;;;;29.93;12.60;;;;;;;0.97;87.49;101732.91;1664526;86;21002;-75
2022/01/19 06:59:35;;;;;;;25.67;11.07;;;;;;;0.97;87.58;101727.75;1664064;86;21040;-75
2022/01/19 07:02:13;;;;;;;26.43;11.20;;;;;;;0.97;87.52;101720.91;1661530;86;21566;-75
2022/01/19 07:04:48;;;;;;;22.13;10.20;;;;;;;1.00;87.55;101727.42;1663936;86;21052;-75
2022/01/19 07:07:11;;;;;;;20.87;9.57;;;;;;;1.03;87.51;101725.34;1664029;86;21208;-75
2022/01/19 07:09:40;;;;;;;21.10;9.20;;;;;;;1.07;87.62;101725.42;1663952;86;21498;-75
2022/01/19 07:12:09;;;;;;;24.90;11.10;;;;;;;1.13;87.75;101723.82;1664602;86;21073;-75
2022/01/19 07:14:37;;;;;;;19.30;9.83;;;;;;;1.20;87.84;101715.39;1664230;86;21505;-73
2022/01/19 07:17:05;;;;;;;18.07;9.47;;;;;;;1.24;87.78;101706.86;1664381;86;21076;-74
2022/01/19 07:19:33;;;;;;;18.47;8.23;;;;;;;1.33;88.03;101709.62;1664370;86;21772;-74
2022/01/19 07:22:00;;;;;;;17.50;8.07;;;;;;;1.40;88.13;101706.78;1664311;86;20997;-79
2022/01/19 07:24:27;;;;;;;21.20;10.30;;;;;;;1.48;88.22;101691.89;1664326;86;21037;-73
2022/01/19 07:26:54;;;;;;;30.30;16.50;;;;;;;1.56;88.04;101694.64;1635956;86;21009;-74
2022/01/19 07:29:23;;;;;;;40.37;21.37;;;;;;;1.59;87.86;101688.66;1664384;86;21108;-75
2022/01/19 07:31:55;;;;;;;35.60;20.07;;;;;;;1.64;88.10;101690.92;1664227;86;21128;-74
2022/01/19 07:34:20;;;;;;;75.50;37.27;;;;;;;1.68;88.10;101697.87;1664124;86;21081;-74
2022/01/19 07:36:48;;;;;;;56.93;30.53;;;;;;;1.71;87.92;101696.65;1664661;86;21009;-74
2022/01/19 07:39:15;;;;;;;61.03;30.90;;;;;;;1.71;87.77;101700.09;1664219;86;21007;-73
2022/01/19 07:41:43;;;;;;;23.03;11.97;;;;;;;1.70;87.56;101697.50;1664576;86;21064;-73
2022/01/19 07:44:27;;;;;;;26.70;14.87;;;;;;;1.71;87.79;101694.06;1659406;86;21122;-75
2022/01/19 07:47:13;;;;;;;49.63;27.43;;;;;;;1.78;87.93;101685.17;1664261;86;21100;-74
2022/01/19 07:49:41;;;;;;;27.57;16.00;;;;;;;1.84;87.87;101687.01;1659968;86;21005;-79
2022/01/19 07:52:17;;;;;;;29.33;17.27;;;;;;;1.86;87.62;101683.14;1664202;86;21593;-75
2022/01/19 07:54:54;;;;;;;23.47;13.13;;;;;;;1.89;87.63;101679.34;1621051;86;21084;-75
2022/01/19 07:57:47;;;;;;;27.43;17.33;;;;;;;1.99;88.00;101679.95;1538281;92;21152;-75
2022/01/19 08:00:27;;;;;;;28.97;17.17;;;;;;;2.07;87.90;101680.09;1537599;93;21133;-74
2022/01/19 08:02:56;;;;;;;30.37;16.17;;;;;;;2.11;87.98;101667.27;1599781;85;21298;-74
2022/01/19 08:05:25;;;;;;;54.20;30.83;;;;;;;2.19;88.16;101669.95;1661084;86;21465;-74
2022/01/19 08:07:52;;;;;;;55.87;32.20;;;;;;;2.22;87.87;101663.58;1664583;86;21051;-74
2022/01/19 08:10:19;;;;;;;38.30;23.53;;;;;;;2.19;87.58;101665.69;1664216;86;21156;-75
2022/01/19 08:12:49;;;;;;;23.83;13.67;;;;;;;2.20;87.56;101658.79;1664582;86;21114;-78
2022/01/19 08:15:16;;;;;;;29.33;16.40;;;;;;;2.20;87.53;101654.48;1664521;86;21005;-77
2022/01/19 08:17:44;;;;;;;39.37;22.53;;;;;;;2.30;87.93;101648.16;1664687;86;21029;-74
2022/01/19 08:20:13;;;;;;;34.60;20.10;;;;;;;2.35;87.78;101642.22;1664652;86;21052;-74
2022/01/19 08:22:40;;;;;;;30.73;18.73;;;;;;;2.36;87.54;101645.27;1635861;86;21211;-74
2022/01/19 08:25:12;;;;;;;29.53;17.00;;;;;;;2.39;87.46;101647.05;1662293;86;21095;-74
2022/01/19 08:27:40;;;;;;;24.80;16.00;;;;;;;2.36;87.28;101641.39;1664768;86;21003;-74
2022/01/19 08:30:11;;;;;;;38.77;25.93;;;;;;;2.36;87.19;101637.51;1664551;86;21017;-79
2022/01/19 08:32:39;;;;;;;45.73;29.65;;;;;;;2.32;86.96;101626.64;1664981;86;21130;-74
2022/01/19 08:35:11;;;;;;;34.90;21.57;;;;;;;2.28;86.87;101627.89;1663860;86;21506;-77
2022/01/19 08:37:57;;;;;;;27.20;18.17;;;;;;;2.26;86.90;101621.80;1664599;86;21060;-75
2022/01/19 08:40:29;;;;;;;32.63;21.60;;;;;;;2.23;86.93;101611.84;1664515;86;21080;-74
2022/01/19 08:42:58;;;;;;;128.20;65.23;;;;;;;2.22;87.00;101617.88;1662534;86;21073;-74
2022/01/19 08:45:25;;;;;;;60.53;33.07;;;;;;;2.22;87.09;101608.83;1664515;86;21724;-74
2022/01/19 08:47:52;;;;;;;32.30;20.40;;;;;;;2.21;87.11;101595.42;1664614;86;21061;-79
2022/01/19 08:50:24;;;;;;;36.93;21.43;;;;;;;2.21;87.11;101590.67;1663187;86;20931;-73
2022/01/19 08:52:53;;;;;;;45.97;26.03;;;;;;;2.23;87.24;101597.62;1648270;86;21089;-74
2022/01/19 08:55:28;;;;;;;34.77;20.07;;;;;;;2.25;87.17;101587.73;1663924;86;21072;-79
2022/01/19 08:57:55;;;;;;;29.00;17.00;;;;;;;2.25;87.24;101581.27;1664733;86;21340;-74
2022/01/19 09:00:23;;;;;;;25.53;15.53;;;;;;;2.26;87.22;101587.74;1664393;86;21213;-74
2022/01/19 09:02:50;;;;;;;25.07;13.63;;;;;;;2.29;87.21;101585.63;1664674;86;21001;-74
2022/01/19 09:05:18;;;;;;;26.13;14.47;;;;;;;2.29;87.12;101582.62;1664364;86;21493;-74
2022/01/19 09:07:45;;;;;;;24.57;13.50;;;;;;;2.31;87.15;101574.89;1664656;86;21048;-75
2022/01/19 09:10:14;;;;;;;21.77;13.17;;;;;;;2.36;87.33;101578.00;1664505;86;21056;-74
2022/01/19 09:12:43;;;;;;;24.87;13.93;;;;;;;2.45;87.43;101577.27;1664654;86;21133;-79
2022/01/19 09:15:12;;;;;;;25.93;14.80;;;;;;;2.53;87.52;101571.78;1664303;86;21013;-74
2022/01/19 09:17:41;;;;;;;22.43;12.53;;;;;;;2.65;87.56;101571.08;1664547;86;21036;-74
2022/01/19 09:20:10;;;;;;;21.87;11.50;;;;;;;2.78;87.55;101565.66;1664703;86;21028;-74
2022/01/19 09:22:37;;;;;;;18.23;10.60;;;;;;;2.89;87.58;101561.06;1664398;86;21112;-74
2022/01/19 09:25:07;;;;;;;19.47;10.13;;;;;;;3.07;87.71;101556.95;1664349;86;21185;-74
2022/01/19 09:27:37;;;;;;;17.80;9.88;;;;;;;3.23;87.62;101549.81;1664681;86;21041;-80
2022/01/19 09:30:08;;;;;;;19.33;10.70;;;;;;;3.38;87.46;101545.65;1664405;85;21052;-75
2022/01/19 09:32:35;;;;;;;19.33;10.53;;;;;;;3.50;87.29;101545.80;1664777;86;21080;-74
2022/01/19 09:35:07;;;;;;;18.83;10.23;;;;;;;3.62;87.13;101545.91;1664425;86;21030;-79
2022/01/19 09:37:31;;;;;;;17.40;9.67;;;;;;;3.76;87.08;101543.02;1664030;86;21215;-74
2022/01/19 09:39:58;;;;;;;19.40;11.50;;;;;;;3.90;86.81;101535.79;1664501;86;21013;-74
2022/01/19 09:42:25;;;;;;;18.70;12.30;;;;;;;3.99;86.54;101534.16;1664657;86;21084;-76
2022/01/19 09:44:52;;;;;;;19.07;10.70;;;;;;;4.10;86.37;101529.45;1664455;86;21010;-74
2022/01/19 09:47:20;;;;;;;18.00;10.47;;;;;;;4.22;86.19;101523.94;1664593;86;21056;-74
2022/01/19 09:49:48;;;;;;;29.67;18.37;;;;;;;4.34;86.04;101522.29;1664326;86;21591;-74
2022/01/19 09:52:15;;;;;;;17.00;9.67;;;;;;;4.46;85.89;101524.95;1664232;86;21025;-74
2022/01/19 09:54:42;;;;;;;18.23;9.07;;;;;;;4.56;85.61;101515.06;1664406;86;21060;-74
2022/01/19 09:57:09;;;;;;;16.03;9.53;;;;;;;4.66;85.53;101512.97;1664626;86;21454;-74
2022/01/19 09:59:36;;;;;;;19.53;10.10;;;;;;;4.76;85.34;101503.47;1664450;86;21526;-75
2022/01/19 10:02:08;;;;;;;16.83;9.67;;;;;;;4.85;85.10;101500.04;1664477;86;21135;-75
2022/01/19 10:04:44;;;;;;;16.47;9.60;;;;;;;4.89;84.55;101503.11;1664285;86;21033;-74
2022/01/19 10:07:19;;;;;;;18.33;10.33;;;;;;;4.92;84.45;101501.81;1664586;86;21040;-74
2022/01/19 10:10:05;;;;;;;16.43;10.07;;;;;;;4.98;84.31;101494.47;1664267;86;21044;-74
2022/01/19 10:18:21;;;;;;;13.80;8.43;;;;;;;5.35;83.64;101482.46;1664616;86;21069;-80
2022/01/19 10:21:08;;;;;;;14.80;8.73;;;;;;;5.42;83.60;101474.23;1664315;86;21048;-75
2022/01/19 10:23:46;;;;;;;16.73;9.93;;;;;;;5.49;83.49;101466.44;1664188;86;21048;-76
2022/01/19 10:26:16;;;;;;;18.20;10.93;;;;;;;5.63;83.24;101469.05;1664210;86;21059;-75
2022/01/19 10:29:07;;;;;;;14.55;10.53;;;;;;;5.68;83.00;101455.62;1664695;86;21121;-75
2022/01/19 10:31:38;;;;;;;17.43;11.13;;;;;;;5.78;82.87;101446.06;1663832;85;21067;-74
2022/01/19 10:34:22;;;;;;;17.80;10.90;;;;;;;5.84;82.51;101442.14;1664514;86;21037;-75
2022/01/19 10:36:56;;;;;;;21.93;13.83;;;;;;;5.92;82.51;101439.11;1664270;86;20994;-74
2022/01/19 10:39:28;;;;;;;22.03;13.27;;;;;;;6.03;82.25;101430.02;1664506;86;21558;-75
2022/01/19 10:42:05;;;;;;;19.07;12.43;;;;;;;6.05;81.73;101426.98;1662428;86;21167;-75
2022/01/19 10:44:37;;;;;;;21.57;13.50;;;;;;;6.07;81.67;101423.95;1664498;86;21044;-75
2022/01/19 10:47:05;;;;;;;21.03;12.70;;;;;;;6.10;81.41;101422.64;1664023;86;21574;-75
2022/01/19 10:49:55;;;;;;;19.43;12.00;;;;;;;6.13;81.32;101413.52;1664520;86;21104;-75
2022/01/19 10:52:31;;;;;;;17.27;12.05;;;;;;;6.20;81.14;101410.02;1664518;86;26445;-80
2022/01/19 10:55:01;;;;;;;16.30;11.37;;;;;;;6.27;80.82;101407.41;1660146;86;21138;-76
2022/01/19 10:57:32;;;;;;;20.80;11.97;;;;;;;6.35;80.92;101410.86;1664089;86;20993;-75
2022/01/19 11:00:38;;;;;;;15.27;10.97;;;;;;;6.38;80.55;101392.62;1664536;86;21104;-75
2022/01/19 11:03:21;;;;;;;15.20;10.97;;;;;;;6.42;80.39;101380.86;1662271;86;21438;-75
2022/01/19 11:05:52;;;;;;;22.77;13.43;;;;;;;6.44;79.98;101370.45;1663889;86;21044;-74
2022/01/19 11:08:22;;;;;;;17.30;11.93;;;;;;;6.48;79.80;101370.44;1664169;86;21980;-75
2022/01/19 11:10:53;;;;;;;19.30;11.15;;;;;;;6.60;79.96;101360.39;1664575;86;20957;-75
2022/01/19 11:13:34;;;;;;;;;;;;;;;6.78;79.96;101370.27;1666785;86;22170;-75
2022/01/19 11:16:02;;;;;;;17.63;10.97;;;;;;;6.87;79.34;101368.49;1664232;86;20192;-75
2022/01/19 11:18:32;;;;;;;15.83;11.15;;;;;;;6.92;79.33;101361.92;1664380;86;21048;-79
2022/01/19 11:21:12;;;;;;;15.45;10.72;;;;;;;7.00;79.28;101358.83;1664654;86;21125;-75
2022/01/19 11:23:44;;;;;;;15.05;10.78;;;;;;;7.07;79.04;101354.02;1664302;86;21025;-75
2022/01/19 11:26:23;;;;;;;14.53;9.87;;;;;;;7.08;78.56;101344.45;1663269;86;21028;-79
2022/01/19 11:28:52;;;;;;;13.77;9.90;;;;;;;7.21;78.81;101336.96;1664264;86;21017;-75
2022/01/19 11:31:27;;;;;;;14.17;9.73;;;;;;;7.38;78.70;101331.59;1635727;86;21056;-78
2022/01/19 11:33:58;;;;;;;11.77;9.00;;;;;;;7.51;78.07;101334.53;1662277;86;21141;-80
2022/01/19 11:36:34;;;;;;;12.57;9.03;;;;;;;7.70;78.23;101322.58;1664219;86;21577;-75
2022/01/19 11:39:20;;;;;;;13.60;8.87;;;;;;;7.80;77.47;101312.48;1664344;86;21531;-75
2022/01/19 11:41:59;;;;;;;11.90;8.93;;;;;;;7.96;77.31;101306.66;1664190;86;21044;-78
2022/01/19 11:44:35;;;;;;;11.37;8.30;;;;;;;8.23;77.04;101303.70;1664488;86;21529;-75
2022/01/19 11:47:17;;;;;;;11.73;8.83;;;;;;;8.26;76.09;101293.22;1664340;86;21162;-75
2022/01/19 11:49:52;;;;;;;13.62;8.58;;;;;;;8.30;75.91;101286.19;1664507;86;21486;-76
2022/01/19 11:52:25;;;;;;;11.75;7.30;;;;;;;8.42;75.51;101283.88;1664235;86;21044;-78
2022/01/19 11:55:14;;;;;;;8.63;6.90;;;;;;;8.54;75.32;101273.72;1664468;86;21021;-80
2022/01/19 11:57:43;;;;;;;10.00;7.28;;;;;;;8.69;75.29;101274.33;1664337;86;21541;-75
2022/01/19 12:00:18;;;;;;;11.68;7.90;;;;;;;8.73;74.86;101267.75;1664519;86;21113;-77
2022/01/19 12:02:55;;;;;;;10.47;7.67;;;;;;;8.71;74.74;101259.95;1664593;86;21064;-75
2022/01/19 12:05:33;;;;;;;11.60;7.70;;;;;;;8.70;74.60;101247.74;1664299;86;21068;-75
2022/01/19 12:08:05;;;;;;;9.63;6.97;;;;;;;8.76;74.94;101248.09;1663925;86;21031;-78
2022/01/19 12:10:43;;;;;;;11.77;7.40;;;;;;;8.90;74.80;101235.69;1661071;86;21081;-79
2022/01/19 12:16:50;;;;;;;10.00;7.10;;;;;;;8.77;74.00;101221.94;1664362;86;21052;-76
2022/01/19 12:19:04;;;;;;;11.73;7.73;;;;;;;8.59;73.55;101211.77;1660484;86;21052;-75
2022/01/19 12:21:51;;;;;;;11.23;7.17;;;;;;;8.46;73.82;101201.52;1662781;86;21574;-75
2022/01/19 12:24:29;;;;;;;10.47;7.47;;;;;;;8.44;73.70;101202.44;1664415;86;21485;-76
2022/01/19 12:27:14;;;;;;;9.77;7.00;;;;;;;8.31;73.48;101201.71;1664273;86;21152;-75
2022/01/19 12:29:54;;;;;;;9.47;7.40;;;;;;;8.20;73.40;101184.03;1664409;86;21546;-78
2022/01/19 12:32:29;;;;;;;10.82;7.72;;;;;;;8.27;73.57;101176.54;1664421;86;21032;-75
2022/01/19 12:35:16;;;;;;;10.70;7.43;;;;;;;8.36;73.62;101166.39;1664529;86;21086;-80
2022/01/19 12:37:58;;;;;;;9.97;7.23;;;;;;;8.42;73.46;101159.78;1663519;86;21048;-76
2022/01/19 12:40:41;;;;;;;13.67;9.90;;;;;;;8.52;73.63;101148.31;1664561;86;21787;-76
2022/01/19 12:43:13;;;;;;;18.67;14.77;;;;;;;8.58;73.04;101129.05;1664170;86;21025;-80
2022/01/19 12:45:50;;;;;;;12.67;8.47;;;;;;;8.53;72.40;101124.34;1664515;86;21017;-76
2022/01/19 12:48:40;;;;;;;12.10;7.90;;;;;;;8.55;72.44;101112.13;1664215;86;21111;-76
2022/01/19 12:51:10;;;;;;;11.45;7.92;;;;;;;8.60;72.45;101094.17;1558393;91;21098;-75
2022/01/19 12:53:41;;;;;;;14.63;9.03;;;;;;;8.67;72.31;101093.19;1511565;93;21249;-76
2022/01/19 12:56:10;;;;;;;11.33;7.83;;;;;;;8.72;71.83;101087.85;1581180;90;21085;-75
2022/01/19 12:58:39;;;;;;;12.77;8.77;;;;;;;8.73;71.91;101086.09;1581253;90;21078;-76
2022/01/19 13:01:09;;;;;;;12.07;7.95;;;;;;;8.71;71.35;101080.46;1581704;90;21129;-76
2022/01/19 13:03:44;;;;;;;18.05;11.08;;;;;;;8.70;71.36;101076.55;1581460;90;21074;-76
2022/01/19 13:06:15;;;;;;;17.23;10.93;;;;;;;8.77;71.10;101072.95;1581590;90;21119;-79